sensor_id;sensor_type;location;lat;lon;timestamp;P1;durP1;ratioP1;P2;durP2;ratioP2
30462;SDS011;17256;43.618;25.336;2022-10-15T00:07:17;5.30;;;4.13;;
30462;SDS011;17256;43.618;25.336;2022-10-15T00:11:13;4.87;;;3.67;;
30462;SDS011;17256;43.618;25.336;2022-10-15T00:15:18;10.73;;;3.97;;
30462;SDS011;17256;43.618;25.336;2022-10-15T00:30:30;7.93;;;4.60;;
30462;SDS011;17256;43.618;25.336;2022-10-15T00:38:17;5.07;;;3.77;;
30462;SDS011;17256;43.618;25.336;2022-10-15T00:50:50;5.50;;;3.40;;
30462;SDS011;17256;43.618;25.336;2022-10-15T00:54:08;4.63;;;3.93;;
30462;SDS011;17256;43.618;25.336;2022-10-15T00:57:31;7.00;;;4.23;;
30462;SDS011;17256;43.618;25.336;2022-10-15T01:01:24;6.23;;;3.93;;
30462;SDS011;17256;43.618;25.336;2022-10-15T01:04:47;11.93;;;4.40;;
30462;SDS011;17256;43.618;25.336;2022-10-15T01:08:13;6.30;;;4.07;;
30462;SDS011;17256;43.618;25.336;2022-10-15T01:40:38;6.20;;;4.17;;
30462;SDS011;17256;43.618;25.336;2022-10-15T01:52:49;8.00;;;5.40;;
30462;SDS011;17256;43.618;25.336;2022-10-15T02:00:55;6.17;;;4.83;;
30462;SDS011;17256;43.618;25.336;2022-10-15T02:16:58;9.83;;;5.57;;
30462;SDS011;17256;43.618;25.336;2022-10-15T02:28:27;7.90;;;6.17;;
30462;SDS011;17256;43.618;25.336;2022-10-15T02:40:09;6.73;;;5.47;;
30462;SDS011;17256;43.618;25.336;2022-10-15T02:44:08;9.53;;;6.40;;
30462;SDS011;17256;43.618;25.336;2022-10-15T03:01:16;7.00;;;5.83;;
30462;SDS011;17256;43.618;25.336;2022-10-15T03:13:10;9.63;;;5.17;;
30462;SDS011;17256;43.618;25.336;2022-10-15T03:17:25;6.13;;;5.07;;
30462;SDS011;17256;43.618;25.336;2022-10-15T03:21:29;6.87;;;5.40;;
30462;SDS011;17256;43.618;25.336;2022-10-15T03:25:33;6.77;;;5.27;;
30462;SDS011;17256;43.618;25.336;2022-10-15T03:33:51;7.73;;;4.60;;
30462;SDS011;17256;43.618;25.336;2022-10-15T03:41:47;10.23;;;5.33;;
30462;SDS011;17256;43.618;25.336;2022-10-15T03:53:31;7.13;;;4.87;;
30462;SDS011;17256;43.618;25.336;2022-10-15T04:05:14;7.87;;;5.20;;
30462;SDS011;17256;43.618;25.336;2022-10-15T04:09:14;9.20;;;6.40;;
30462;SDS011;17256;43.618;25.336;2022-10-15T04:13:00;5.67;;;5.07;;
30462;SDS011;17256;43.618;25.336;2022-10-15T04:17:10;10.80;;;6.07;;
30462;SDS011;17256;43.618;25.336;2022-10-15T04:24:51;6.40;;;5.50;;
30462;SDS011;17256;43.618;25.336;2022-10-15T04:41:06;9.43;;;6.10;;
30462;SDS011;17256;43.618;25.336;2022-10-15T04:56:22;7.63;;;5.43;;
30462;SDS011;17256;43.618;25.336;2022-10-15T05:24:10;13.30;;;6.03;;
30462;SDS011;17256;43.618;25.336;2022-10-15T05:28:07;9.10;;;5.93;;
30462;SDS011;17256;43.618;25.336;2022-10-15T05:43:36;10.00;;;5.00;;
30462;SDS011;17256;43.618;25.336;2022-10-15T05:58:25;10.33;;;4.87;;
30462;SDS011;17256;43.618;25.336;2022-10-15T06:10:08;12.43;;;7.00;;
30462;SDS011;17256;43.618;25.336;2022-10-15T06:23:48;7.73;;;4.47;;
30462;SDS011;17256;43.618;25.336;2022-10-15T06:27:16;7.87;;;4.47;;
30462;SDS011;17256;43.618;25.336;2022-10-15T06:45:49;7.97;;;4.67;;
30462;SDS011;17256;43.618;25.336;2022-10-15T06:48:47;8.40;;;4.97;;
30462;SDS011;17256;43.618;25.336;2022-10-15T06:52:32;9.97;;;5.43;;
30462;SDS011;17256;43.618;25.336;2022-10-15T06:55:02;7.63;;;5.13;;
30462;SDS011;17256;43.618;25.336;2022-10-15T06:57:30;6.40;;;4.67;;
30462;SDS011;17256;43.618;25.336;2022-10-15T06:59:57;7.17;;;5.07;;
30462;SDS011;17256;43.618;25.336;2022-10-15T07:02:24;7.37;;;4.50;;
30462;SDS011;17256;43.618;25.336;2022-10-15T07:04:52;11.73;;;4.30;;
30462;SDS011;17256;43.618;25.336;2022-10-15T07:09:56;9.50;;;5.77;;
30462;SDS011;17256;43.618;25.336;2022-10-15T07:12:22;5.70;;;5.03;;
30462;SDS011;17256;43.618;25.336;2022-10-15T07:14:48;8.97;;;5.93;;
30462;SDS011;17256;43.618;25.336;2022-10-15T07:17:15;8.80;;;5.27;;
30462;SDS011;17256;43.618;25.336;2022-10-15T07:19:43;10.53;;;5.27;;
30462;SDS011;17256;43.618;25.336;2022-10-15T07:22:10;9.47;;;5.47;;
30462;SDS011;17256;43.618;25.336;2022-10-15T07:24:36;10.13;;;5.73;;
30462;SDS011;17256;43.618;25.336;2022-10-15T07:27:03;7.60;;;4.77;;
30462;SDS011;17256;43.618;25.336;2022-10-15T07:29:29;8.70;;;5.13;;
30462;SDS011;17256;43.618;25.336;2022-10-15T07:31:59;9.30;;;5.53;;
30462;SDS011;17256;43.618;25.336;2022-10-15T07:34:25;5.93;;;5.10;;
30462;SDS011;17256;43.618;25.336;2022-10-15T07:36:52;7.57;;;6.13;;
30462;SDS011;17256;43.618;25.336;2022-10-15T07:39:18;9.80;;;5.57;;
30462;SDS011;17256;43.618;25.336;2022-10-15T07:41:45;5.50;;;5.00;;
30462;SDS011;17256;43.618;25.336;2022-10-15T07:44:11;14.80;;;6.07;;
30462;SDS011;17256;43.618;25.336;2022-10-15T07:46:37;9.00;;;5.37;;
30462;SDS011;17256;43.618;25.336;2022-10-15T07:49:03;9.53;;;5.53;;
30462;SDS011;17256;43.618;25.336;2022-10-15T07:51:29;9.23;;;5.17;;
30462;SDS011;17256;43.618;25.336;2022-10-15T07:53:56;8.53;;;5.70;;
30462;SDS011;17256;43.618;25.336;2022-10-15T07:56:26;11.43;;;6.10;;
30462;SDS011;17256;43.618;25.336;2022-10-15T07:58:52;6.00;;;5.50;;
30462;SDS011;17256;43.618;25.336;2022-10-15T08:01:19;8.10;;;5.50;;
30462;SDS011;17256;43.618;25.336;2022-10-15T08:03:47;7.67;;;5.97;;
30462;SDS011;17256;43.618;25.336;2022-10-15T08:06:16;10.97;;;6.83;;
30462;SDS011;17256;43.618;25.336;2022-10-15T08:08:43;7.10;;;6.40;;
30462;SDS011;17256;43.618;25.336;2022-10-15T08:11:10;9.40;;;6.40;;
30462;SDS011;17256;43.618;25.336;2022-10-15T08:13:38;10.37;;;7.43;;
30462;SDS011;17256;43.618;25.336;2022-10-15T08:16:09;13.57;;;6.80;;
30462;SDS011;17256;43.618;25.336;2022-10-15T08:18:36;9.67;;;7.20;;
30462;SDS011;17256;43.618;25.336;2022-10-15T08:21:03;9.70;;;6.93;;
30462;SDS011;17256;43.618;25.336;2022-10-15T08:23:31;10.07;;;8.97;;
30462;SDS011;17256;43.618;25.336;2022-10-15T08:25:57;10.37;;;6.93;;
30462;SDS011;17256;43.618;25.336;2022-10-15T08:28:28;9.90;;;7.57;;
30462;SDS011;17256;43.618;25.336;2022-10-15T08:30:59;10.27;;;8.17;;
30462;SDS011;17256;43.618;25.336;2022-10-15T08:33:29;12.73;;;8.20;;
30462;SDS011;17256;43.618;25.336;2022-10-15T08:35:55;9.43;;;7.87;;
30462;SDS011;17256;43.618;25.336;2022-10-15T08:38:21;12.40;;;7.60;;
30462;SDS011;17256;43.618;25.336;2022-10-15T08:40:49;11.90;;;7.97;;
30462;SDS011;17256;43.618;25.336;2022-10-15T08:46:04;10.03;;;8.33;;
30462;SDS011;17256;43.618;25.336;2022-10-15T08:48:47;10.80;;;7.57;;
30462;SDS011;17256;43.618;25.336;2022-10-15T08:51:19;9.77;;;7.30;;
30462;SDS011;17256;43.618;25.336;2022-10-15T08:53:52;11.77;;;7.60;;
30462;SDS011;17256;43.618;25.336;2022-10-15T08:56:26;9.33;;;7.50;;
30462;SDS011;17256;43.618;25.336;2022-10-15T09:01:47;12.67;;;7.27;;
30462;SDS011;17256;43.618;25.336;2022-10-15T09:04:29;8.63;;;7.43;;
30462;SDS011;17256;43.618;25.336;2022-10-15T09:07:11;10.40;;;7.33;;
30462;SDS011;17256;43.618;25.336;2022-10-15T09:09:51;10.20;;;7.10;;
30462;SDS011;17256;43.618;25.336;2022-10-15T09:13:03;11.37;;;7.43;;
30462;SDS011;17256;43.618;25.336;2022-10-15T09:15:52;9.03;;;6.50;;
30462;SDS011;17256;43.618;25.336;2022-10-15T09:18:25;8.83;;;6.83;;
30462;SDS011;17256;43.618;25.336;2022-10-15T09:21:03;10.23;;;6.70;;
30462;SDS011;17256;43.618;25.336;2022-10-15T09:23:31;10.03;;;6.13;;
30462;SDS011;17256;43.618;25.336;2022-10-15T09:35:14;8.10;;;7.13;;
30462;SDS011;17256;43.618;25.336;2022-10-15T09:43:54;8.77;;;6.37;;
30462;SDS011;17256;43.618;25.336;2022-10-15T09:46:27;11.93;;;7.13;;
30462;SDS011;17256;43.618;25.336;2022-10-15T09:49:11;12.90;;;6.73;;
30462;SDS011;17256;43.618;25.336;2022-10-15T09:57:53;9.73;;;6.60;;
30462;SDS011;17256;43.618;25.336;2022-10-15T10:00:23;8.57;;;6.83;;
30462;SDS011;17256;43.618;25.336;2022-10-15T10:03:02;11.57;;;6.53;;
30462;SDS011;17256;43.618;25.336;2022-10-15T10:05:32;10.37;;;6.33;;
30462;SDS011;17256;43.618;25.336;2022-10-15T10:08:08;8.10;;;6.87;;
30462;SDS011;17256;43.618;25.336;2022-10-15T10:10:43;9.57;;;7.33;;
30462;SDS011;17256;43.618;25.336;2022-10-15T10:13:48;11.27;;;6.83;;
30462;SDS011;17256;43.618;25.336;2022-10-15T10:16:17;9.77;;;7.40;;
30462;SDS011;17256;43.618;25.336;2022-10-15T10:18:46;12.77;;;7.07;;
30462;SDS011;17256;43.618;25.336;2022-10-15T10:21:40;11.20;;;6.90;;
30462;SDS011;17256;43.618;25.336;2022-10-15T10:24:23;7.03;;;6.33;;
30462;SDS011;17256;43.618;25.336;2022-10-15T10:26:56;9.47;;;6.97;;
30462;SDS011;17256;43.618;25.336;2022-10-15T10:29:23;10.60;;;6.60;;
30462;SDS011;17256;43.618;25.336;2022-10-15T10:31:51;7.50;;;6.57;;
30462;SDS011;17256;43.618;25.336;2022-10-15T10:34:26;11.97;;;7.00;;
30462;SDS011;17256;43.618;25.336;2022-10-15T10:36:57;9.03;;;6.73;;
30462;SDS011;17256;43.618;25.336;2022-10-15T10:39:29;9.03;;;7.20;;
30462;SDS011;17256;43.618;25.336;2022-10-15T10:42:05;7.93;;;6.40;;
30462;SDS011;17256;43.618;25.336;2022-10-15T10:44:48;7.80;;;6.30;;
30462;SDS011;17256;43.618;25.336;2022-10-15T10:47:20;8.07;;;5.83;;
30462;SDS011;17256;43.618;25.336;2022-10-15T10:49:58;9.70;;;6.07;;
30462;SDS011;17256;43.618;25.336;2022-10-15T10:52:26;9.13;;;5.83;;
30462;SDS011;17256;43.618;25.336;2022-10-15T10:55:06;10.13;;;5.90;;
30462;SDS011;17256;43.618;25.336;2022-10-15T10:57:55;8.00;;;5.70;;
30462;SDS011;17256;43.618;25.336;2022-10-15T11:00:44;9.43;;;6.73;;
30462;SDS011;17256;43.618;25.336;2022-10-15T11:15:58;11.73;;;4.80;;
30462;SDS011;17256;43.618;25.336;2022-10-15T11:21:35;7.97;;;5.17;;
30462;SDS011;17256;43.618;25.336;2022-10-15T11:24:28;6.13;;;4.90;;
30462;SDS011;17256;43.618;25.336;2022-10-15T11:27:33;5.17;;;4.17;;
30462;SDS011;17256;43.618;25.336;2022-10-15T11:30:26;7.13;;;4.77;;
30462;SDS011;17256;43.618;25.336;2022-10-15T11:33:04;7.40;;;5.20;;
30462;SDS011;17256;43.618;25.336;2022-10-15T11:50:39;7.77;;;4.57;;
30462;SDS011;17256;43.618;25.336;2022-10-15T11:53:24;5.70;;;4.73;;
30462;SDS011;17256;43.618;25.336;2022-10-15T11:56:12;4.80;;;4.30;;
30462;SDS011;17256;43.618;25.336;2022-10-15T12:01:32;6.37;;;4.23;;
30462;SDS011;17256;43.618;25.336;2022-10-15T12:04:14;7.43;;;4.10;;
30462;SDS011;17256;43.618;25.336;2022-10-15T12:06:57;7.47;;;4.60;;
30462;SDS011;17256;43.618;25.336;2022-10-15T12:15:06;4.20;;;3.87;;
30462;SDS011;17256;43.618;25.336;2022-10-15T12:18:03;5.17;;;4.07;;
30462;SDS011;17256;43.618;25.336;2022-10-15T12:20:39;7.53;;;4.50;;
30462;SDS011;17256;43.618;25.336;2022-10-15T12:23:17;8.47;;;4.23;;
30462;SDS011;17256;43.618;25.336;2022-10-15T12:26:36;6.20;;;4.03;;
30462;SDS011;17256;43.618;25.336;2022-10-15T12:29:00;6.67;;;4.47;;
30462;SDS011;17256;43.618;25.336;2022-10-15T12:31:44;7.47;;;4.33;;
30462;SDS011;17256;43.618;25.336;2022-10-15T12:34:26;5.80;;;3.80;;
30462;SDS011;17256;43.618;25.336;2022-10-15T12:37:00;7.17;;;4.30;;
30462;SDS011;17256;43.618;25.336;2022-10-15T12:39:29;6.97;;;4.13;;
30462;SDS011;17256;43.618;25.336;2022-10-15T12:41:56;4.43;;;3.97;;
30462;SDS011;17256;43.618;25.336;2022-10-15T12:44:27;4.90;;;3.57;;
30462;SDS011;17256;43.618;25.336;2022-10-15T12:53:04;9.40;;;4.10;;
30462;SDS011;17256;43.618;25.336;2022-10-15T13:03:55;8.13;;;4.13;;
30462;SDS011;17256;43.618;25.336;2022-10-15T13:06:32;6.43;;;4.20;;
30462;SDS011;17256;43.618;25.336;2022-10-15T13:11:41;5.70;;;3.97;;
30462;SDS011;17256;43.618;25.336;2022-10-15T13:17:05;5.97;;;4.30;;
30462;SDS011;17256;43.618;25.336;2022-10-15T13:19:51;6.80;;;3.87;;
30462;SDS011;17256;43.618;25.336;2022-10-15T13:22:23;4.13;;;3.83;;
30462;SDS011;17256;43.618;25.336;2022-10-15T13:24:51;5.37;;;3.67;;
30462;SDS011;17256;43.618;25.336;2022-10-15T13:29:59;6.97;;;4.03;;
30462;SDS011;17256;43.618;25.336;2022-10-15T13:32:34;7.10;;;3.50;;
30462;SDS011;17256;43.618;25.336;2022-10-15T13:35:11;6.37;;;4.50;;
30462;SDS011;17256;43.618;25.336;2022-10-15T13:37:42;6.60;;;4.10;;
30462;SDS011;17256;43.618;25.336;2022-10-15T13:40:17;4.53;;;3.67;;
30462;SDS011;17256;43.618;25.336;2022-10-15T13:42:58;4.97;;;3.77;;
30462;SDS011;17256;43.618;25.336;2022-10-15T13:45:25;5.63;;;3.73;;
30462;SDS011;17256;43.618;25.336;2022-10-15T13:47:52;4.37;;;3.60;;
30462;SDS011;17256;43.618;25.336;2022-10-15T13:50:34;4.37;;;3.73;;
30462;SDS011;17256;43.618;25.336;2022-10-15T13:55:58;6.93;;;3.60;;
30462;SDS011;17256;43.618;25.336;2022-10-15T14:03:30;4.70;;;4.23;;
30462;SDS011;17256;43.618;25.336;2022-10-15T14:06:07;6.00;;;3.47;;
30462;SDS011;17256;43.618;25.336;2022-10-15T14:08:39;6.90;;;3.50;;
30462;SDS011;17256;43.618;25.336;2022-10-15T14:11:05;7.03;;;4.50;;
30462;SDS011;17256;43.618;25.336;2022-10-15T14:13:31;6.80;;;4.43;;
30462;SDS011;17256;43.618;25.336;2022-10-15T14:18:45;4.40;;;3.93;;
30462;SDS011;17256;43.618;25.336;2022-10-15T14:21:16;7.13;;;3.70;;
30462;SDS011;17256;43.618;25.336;2022-10-15T14:23:46;12.07;;;4.90;;
30462;SDS011;17256;43.618;25.336;2022-10-15T14:26:14;6.47;;;3.70;;
30462;SDS011;17256;43.618;25.336;2022-10-15T14:28:41;4.20;;;3.80;;
30462;SDS011;17256;43.618;25.336;2022-10-15T14:31:07;13.60;;;5.27;;
30462;SDS011;17256;43.618;25.336;2022-10-15T14:38:49;46.47;;;7.87;;
30462;SDS011;17256;43.618;25.336;2022-10-15T14:41:23;13.97;;;4.40;;
30462;SDS011;17256;43.618;25.336;2022-10-15T14:43:59;13.20;;;5.03;;
30462;SDS011;17256;43.618;25.336;2022-10-15T14:46:36;7.13;;;4.13;;
30462;SDS011;17256;43.618;25.336;2022-10-15T14:49:15;7.60;;;4.33;;
30462;SDS011;17256;43.618;25.336;2022-10-15T14:52:00;13.13;;;5.67;;
30462;SDS011;17256;43.618;25.336;2022-10-15T14:55:00;4.10;;;3.70;;
30462;SDS011;17256;43.618;25.336;2022-10-15T14:57:37;8.30;;;6.53;;
30462;SDS011;17256;43.618;25.336;2022-10-15T15:00:13;6.67;;;4.40;;
30462;SDS011;17256;43.618;25.336;2022-10-15T15:02:48;5.00;;;3.93;;
30462;SDS011;17256;43.618;25.336;2022-10-15T15:05:22;12.07;;;4.93;;
30462;SDS011;17256;43.618;25.336;2022-10-15T15:08:00;5.27;;;4.13;;
30462;SDS011;17256;43.618;25.336;2022-10-15T15:10:33;4.43;;;3.83;;
30462;SDS011;17256;43.618;25.336;2022-10-15T15:13:01;9.33;;;4.60;;
30462;SDS011;17256;43.618;25.336;2022-10-15T15:15:28;5.67;;;3.90;;
30462;SDS011;17256;43.618;25.336;2022-10-15T15:17:58;7.27;;;3.90;;
30462;SDS011;17256;43.618;25.336;2022-10-15T15:20:25;9.23;;;4.50;;
30462;SDS011;17256;43.618;25.336;2022-10-15T15:22:56;4.87;;;3.97;;
30462;SDS011;17256;43.618;25.336;2022-10-15T15:28:14;9.17;;;5.67;;
30462;SDS011;17256;43.618;25.336;2022-10-15T15:30:50;5.10;;;4.20;;
30462;SDS011;17256;43.618;25.336;2022-10-15T15:33:34;5.57;;;4.43;;
30462;SDS011;17256;43.618;25.336;2022-10-15T15:36:01;7.73;;;5.20;;
30462;SDS011;17256;43.618;25.336;2022-10-15T15:38:31;9.27;;;5.00;;
30462;SDS011;17256;43.618;25.336;2022-10-15T15:41:15;6.67;;;5.23;;
30462;SDS011;17256;43.618;25.336;2022-10-15T15:43:45;9.53;;;7.17;;
30462;SDS011;17256;43.618;25.336;2022-10-15T15:46:20;10.03;;;5.13;;
30462;SDS011;17256;43.618;25.336;2022-10-15T15:48:47;6.07;;;5.40;;
30462;SDS011;17256;43.618;25.336;2022-10-15T15:53:45;6.23;;;5.33;;
30462;SDS011;17256;43.618;25.336;2022-10-15T15:56:11;9.70;;;5.30;;
30462;SDS011;17256;43.618;25.336;2022-10-15T15:58:47;5.47;;;5.00;;
30462;SDS011;17256;43.618;25.336;2022-10-15T16:01:15;8.40;;;5.17;;
30462;SDS011;17256;43.618;25.336;2022-10-15T16:03:45;6.73;;;4.37;;
30462;SDS011;17256;43.618;25.336;2022-10-15T16:06:12;7.67;;;5.10;;
30462;SDS011;17256;43.618;25.336;2022-10-15T16:08:39;7.97;;;4.33;;
30462;SDS011;17256;43.618;25.336;2022-10-15T16:11:05;8.13;;;5.77;;
30462;SDS011;17256;43.618;25.336;2022-10-15T16:13:36;10.30;;;7.37;;
30462;SDS011;17256;43.618;25.336;2022-10-15T16:16:05;8.90;;;7.43;;
30462;SDS011;17256;43.618;25.336;2022-10-15T16:18:32;8.00;;;5.90;;
30462;SDS011;17256;43.618;25.336;2022-10-15T16:21:00;12.83;;;5.37;;
30462;SDS011;17256;43.618;25.336;2022-10-15T16:23:28;7.77;;;5.57;;
30462;SDS011;17256;43.618;25.336;2022-10-15T16:25:55;6.90;;;5.03;;
30462;SDS011;17256;43.618;25.336;2022-10-15T16:28:23;8.20;;;5.73;;
30462;SDS011;17256;43.618;25.336;2022-10-15T16:30:50;7.53;;;5.30;;
30462;SDS011;17256;43.618;25.336;2022-10-15T16:33:18;9.40;;;6.30;;
30462;SDS011;17256;43.618;25.336;2022-10-15T16:35:49;8.90;;;6.37;;
30462;SDS011;17256;43.618;25.336;2022-10-15T16:38:19;9.73;;;7.13;;
30462;SDS011;17256;43.618;25.336;2022-10-15T16:40:45;11.10;;;8.40;;
30462;SDS011;17256;43.618;25.336;2022-10-15T16:43:11;19.80;;;9.30;;
30462;SDS011;17256;43.618;25.336;2022-10-15T16:45:37;16.90;;;10.63;;
30462;SDS011;17256;43.618;25.336;2022-10-15T16:48:04;15.57;;;10.00;;
30462;SDS011;17256;43.618;25.336;2022-10-15T16:50:31;17.47;;;12.77;;
30462;SDS011;17256;43.618;25.336;2022-10-15T16:52:57;14.53;;;11.70;;
30462;SDS011;17256;43.618;25.336;2022-10-15T16:55:23;13.87;;;9.90;;
30462;SDS011;17256;43.618;25.336;2022-10-15T16:57:49;14.93;;;10.40;;
30462;SDS011;17256;43.618;25.336;2022-10-15T17:00:15;11.97;;;9.53;;
30462;SDS011;17256;43.618;25.336;2022-10-15T17:02:41;13.37;;;11.80;;
30462;SDS011;17256;43.618;25.336;2022-10-15T17:05:09;12.50;;;9.27;;
30462;SDS011;17256;43.618;25.336;2022-10-15T17:07:37;12.03;;;10.17;;
30462;SDS011;17256;43.618;25.336;2022-10-15T17:10:04;13.33;;;9.57;;
30462;SDS011;17256;43.618;25.336;2022-10-15T17:12:30;11.90;;;9.50;;
30462;SDS011;17256;43.618;25.336;2022-10-15T17:14:56;13.13;;;10.63;;
30462;SDS011;17256;43.618;25.336;2022-10-15T17:17:22;16.67;;;13.30;;
30462;SDS011;17256;43.618;25.336;2022-10-15T17:19:49;17.43;;;13.80;;
30462;SDS011;17256;43.618;25.336;2022-10-15T17:22:15;18.37;;;13.87;;
30462;SDS011;17256;43.618;25.336;2022-10-15T17:24:42;14.27;;;11.63;;
30462;SDS011;17256;43.618;25.336;2022-10-15T17:27:08;14.37;;;12.17;;
30462;SDS011;17256;43.618;25.336;2022-10-15T17:29:34;16.30;;;12.30;;
30462;SDS011;17256;43.618;25.336;2022-10-15T17:32:00;13.63;;;12.27;;
30462;SDS011;17256;43.618;25.336;2022-10-15T17:34:28;16.17;;;13.30;;
30462;SDS011;17256;43.618;25.336;2022-10-15T17:36:54;14.10;;;12.37;;
30462;SDS011;17256;43.618;25.336;2022-10-15T17:39:20;15.23;;;12.93;;
30462;SDS011;17256;43.618;25.336;2022-10-15T17:41:49;25.43;;;19.20;;
30462;SDS011;17256;43.618;25.336;2022-10-15T17:46:46;39.10;;;28.07;;
30462;SDS011;17256;43.618;25.336;2022-10-15T17:49:12;35.03;;;24.83;;
30462;SDS011;17256;43.618;25.336;2022-10-15T17:51:46;127.13;;;86.90;;
30462;SDS011;17256;43.618;25.336;2022-10-15T17:54:12;176.30;;;123.23;;
30462;SDS011;17256;43.618;25.336;2022-10-15T17:56:38;276.53;;;182.67;;
30462;SDS011;17256;43.618;25.336;2022-10-15T17:59:05;353.53;;;229.43;;
30462;SDS011;17256;43.618;25.336;2022-10-15T18:01:33;432.87;;;288.53;;
30462;SDS011;17256;43.618;25.336;2022-10-15T18:06:41;95.20;;;67.20;;
30462;SDS011;17256;43.618;25.336;2022-10-15T18:09:12;78.23;;;63.33;;
30462;SDS011;17256;43.618;25.336;2022-10-15T18:11:38;62.33;;;55.73;;
30462;SDS011;17256;43.618;25.336;2022-10-15T18:14:04;36.90;;;33.23;;
30462;SDS011;17256;43.618;25.336;2022-10-15T18:16:29;29.13;;;26.30;;
30462;SDS011;17256;43.618;25.336;2022-10-15T18:18:56;14.60;;;13.20;;
30462;SDS011;17256;43.618;25.336;2022-10-15T18:21:23;14.30;;;12.67;;
30462;SDS011;17256;43.618;25.336;2022-10-15T18:23:49;14.10;;;12.13;;
30462;SDS011;17256;43.618;25.336;2022-10-15T18:26:16;14.50;;;11.33;;
30462;SDS011;17256;43.618;25.336;2022-10-15T18:28:45;12.17;;;10.60;;
30462;SDS011;17256;43.618;25.336;2022-10-15T18:31:13;12.43;;;11.13;;
30462;SDS011;17256;43.618;25.336;2022-10-15T18:33:42;13.23;;;10.60;;
30462;SDS011;17256;43.618;25.336;2022-10-15T18:36:14;13.07;;;11.13;;
30462;SDS011;17256;43.618;25.336;2022-10-15T18:38:41;17.40;;;12.13;;
30462;SDS011;17256;43.618;25.336;2022-10-15T18:41:28;20.83;;;13.27;;
30462;SDS011;17256;43.618;25.336;2022-10-15T18:44:04;19.67;;;13.77;;
30462;SDS011;17256;43.618;25.336;2022-10-15T18:46:37;22.23;;;14.80;;
30462;SDS011;17256;43.618;25.336;2022-10-15T18:49:07;17.97;;;13.47;;
30462;SDS011;17256;43.618;25.336;2022-10-15T18:51:42;16.53;;;12.60;;
30462;SDS011;17256;43.618;25.336;2022-10-15T18:54:10;17.17;;;12.60;;
30462;SDS011;17256;43.618;25.336;2022-10-15T18:56:36;17.57;;;11.70;;
30462;SDS011;17256;43.618;25.336;2022-10-15T18:59:03;19.47;;;12.13;;
30462;SDS011;17256;43.618;25.336;2022-10-15T19:04:02;17.43;;;12.33;;
30462;SDS011;17256;43.618;25.336;2022-10-15T19:06:35;14.17;;;12.30;;
30462;SDS011;17256;43.618;25.336;2022-10-15T19:09:03;16.20;;;11.43;;
30462;SDS011;17256;43.618;25.336;2022-10-15T19:11:32;14.77;;;11.33;;
30462;SDS011;17256;43.618;25.336;2022-10-15T19:14:00;14.30;;;11.57;;
30462;SDS011;17256;43.618;25.336;2022-10-15T19:16:28;14.27;;;11.53;;
30462;SDS011;17256;43.618;25.336;2022-10-15T19:19:00;17.47;;;12.60;;
30462;SDS011;17256;43.618;25.336;2022-10-15T19:21:32;18.83;;;11.80;;
30462;SDS011;17256;43.618;25.336;2022-10-15T19:23:58;18.37;;;11.63;;
30462;SDS011;17256;43.618;25.336;2022-10-15T19:26:25;16.70;;;13.33;;
30462;SDS011;17256;43.618;25.336;2022-10-15T19:28:54;16.20;;;13.97;;
30462;SDS011;17256;43.618;25.336;2022-10-15T19:31:22;15.73;;;12.60;;
30462;SDS011;17256;43.618;25.336;2022-10-15T19:33:51;14.07;;;12.10;;
30462;SDS011;17256;43.618;25.336;2022-10-15T19:36:23;14.47;;;12.67;;
30462;SDS011;17256;43.618;25.336;2022-10-15T19:38:51;14.17;;;12.27;;
30462;SDS011;17256;43.618;25.336;2022-10-15T19:41:18;13.33;;;11.73;;
30462;SDS011;17256;43.618;25.336;2022-10-15T19:43:44;13.47;;;12.10;;
30462;SDS011;17256;43.618;25.336;2022-10-15T19:49:06;13.40;;;12.10;;
30462;SDS011;17256;43.618;25.336;2022-10-15T19:51:47;14.67;;;11.43;;
30462;SDS011;17256;43.618;25.336;2022-10-15T19:54:14;13.07;;;11.40;;
30462;SDS011;17256;43.618;25.336;2022-10-15T19:56:42;16.30;;;13.03;;
30462;SDS011;17256;43.618;25.336;2022-10-15T19:59:16;14.57;;;12.97;;
30462;SDS011;17256;43.618;25.336;2022-10-15T20:01:46;14.90;;;13.30;;
30462;SDS011;17256;43.618;25.336;2022-10-15T20:04:11;21.27;;;14.00;;
30462;SDS011;17256;43.618;25.336;2022-10-15T20:06:38;20.47;;;13.63;;
30462;SDS011;17256;43.618;25.336;2022-10-15T20:09:08;19.80;;;14.13;;
30462;SDS011;17256;43.618;25.336;2022-10-15T20:11:34;18.90;;;13.47;;
30462;SDS011;17256;43.618;25.336;2022-10-15T20:14:00;23.67;;;14.57;;
30462;SDS011;17256;43.618;25.336;2022-10-15T20:16:27;20.47;;;14.03;;
30462;SDS011;17256;43.618;25.336;2022-10-15T20:18:53;20.00;;;15.70;;
30462;SDS011;17256;43.618;25.336;2022-10-15T20:21:20;25.97;;;15.80;;
30462;SDS011;17256;43.618;25.336;2022-10-15T20:23:46;18.70;;;13.80;;
30462;SDS011;17256;43.618;25.336;2022-10-15T20:26:13;21.13;;;14.03;;
30462;SDS011;17256;43.618;25.336;2022-10-15T20:28:41;14.27;;;12.80;;
30462;SDS011;17256;43.618;25.336;2022-10-15T20:31:10;17.93;;;12.93;;
30462;SDS011;17256;43.618;25.336;2022-10-15T20:33:44;18.17;;;13.93;;
30462;SDS011;17256;43.618;25.336;2022-10-15T20:36:19;16.40;;;14.20;;
30462;SDS011;17256;43.618;25.336;2022-10-15T20:38:44;17.17;;;15.23;;
30462;SDS011;17256;43.618;25.336;2022-10-15T20:41:14;17.33;;;14.93;;
30462;SDS011;17256;43.618;25.336;2022-10-15T20:43:42;19.00;;;13.40;;
30462;SDS011;17256;43.618;25.336;2022-10-15T20:46:13;17.30;;;14.23;;
30462;SDS011;17256;43.618;25.336;2022-10-15T20:48:43;15.27;;;13.00;;
30462;SDS011;17256;43.618;25.336;2022-10-15T20:51:11;14.27;;;12.63;;
30462;SDS011;17256;43.618;25.336;2022-10-15T20:53:40;16.07;;;12.80;;
30462;SDS011;17256;43.618;25.336;2022-10-15T20:56:06;15.53;;;13.40;;
30462;SDS011;17256;43.618;25.336;2022-10-15T20:58:32;15.10;;;12.90;;
30462;SDS011;17256;43.618;25.336;2022-10-15T21:00:58;15.90;;;12.97;;
30462;SDS011;17256;43.618;25.336;2022-10-15T21:03:24;14.00;;;12.60;;
30462;SDS011;17256;43.618;25.336;2022-10-15T21:05:51;15.60;;;12.83;;
30462;SDS011;17256;43.618;25.336;2022-10-15T21:08:17;14.57;;;11.60;;
30462;SDS011;17256;43.618;25.336;2022-10-15T21:10:43;15.00;;;13.07;;
30462;SDS011;17256;43.618;25.336;2022-10-15T21:13:10;12.73;;;11.30;;
30462;SDS011;17256;43.618;25.336;2022-10-15T21:15:36;15.93;;;12.53;;
30462;SDS011;17256;43.618;25.336;2022-10-15T21:18:04;13.47;;;11.60;;
30462;SDS011;17256;43.618;25.336;2022-10-15T21:20:29;11.90;;;10.70;;
30462;SDS011;17256;43.618;25.336;2022-10-15T21:22:55;16.30;;;12.53;;
30462;SDS011;17256;43.618;25.336;2022-10-15T21:25:21;11.83;;;10.60;;
30462;SDS011;17256;43.618;25.336;2022-10-15T21:27:47;19.30;;;16.10;;
30462;SDS011;17256;43.618;25.336;2022-10-15T21:30:13;32.70;;;26.23;;
30462;SDS011;17256;43.618;25.336;2022-10-15T21:32:39;30.47;;;22.97;;
30462;SDS011;17256;43.618;25.336;2022-10-15T21:35:05;27.30;;;23.07;;
30462;SDS011;17256;43.618;25.336;2022-10-15T21:37:32;27.80;;;22.63;;
30462;SDS011;17256;43.618;25.336;2022-10-15T21:40:01;22.00;;;19.63;;
30462;SDS011;17256;43.618;25.336;2022-10-15T21:42:28;19.83;;;17.67;;
30462;SDS011;17256;43.618;25.336;2022-10-15T21:44:55;20.23;;;16.03;;
30462;SDS011;17256;43.618;25.336;2022-10-15T21:47:22;19.30;;;15.63;;
30462;SDS011;17256;43.618;25.336;2022-10-15T21:49:48;16.50;;;14.83;;
30462;SDS011;17256;43.618;25.336;2022-10-15T21:52:14;15.83;;;14.30;;
30462;SDS011;17256;43.618;25.336;2022-10-15T21:54:41;18.73;;;13.30;;